RYR771 EGCC-LPFR
Flight info
| Callsign | RYR771 |
|---|---|
| Flight time | N/A |
| Altitude | 23000 |
| Route | KUXEM1Y KUXEM P17 BEPHE/N0448F360 DCT OSSEP DCT ELNIF DCT ZESPE DCT KLAKI DCT SALCO/N0447F350 DCT ERWAN/N0452F370 DCT BALDA DCT ABUPI DCT ALAGU ALAGU6K |
| Aircraft | B738/M-SDE2E3FGHIRWXY/LB1 |
Departure
| Time | 2026-05-04 18:11 |
|---|---|
| Airport | Manchester Airport (EGCC) |
Arrival
| Time | N/A |
|---|---|
| Airport | Faro - Gago Coutinho International Airport (LPFR) |
| Time | Latitude | Longitude | Altitude | Speed | Heading |
|---|---|---|---|---|---|
| 2026-05-04 17:39 | 53.36063 | -2.26842 | 218 ft | 0 kts | 313° |
| 2026-05-04 18:00 | 53.36052 | -2.26822 | 249 ft | 4 kts | 314° |
| 2026-05-04 18:00 | 53.36036 | -2.26787 | 249 ft | 4 kts | 292° |
| 2026-05-04 18:00 | 53.36032 | -2.26746 | 250 ft | 4 kts | 252° |
| 2026-05-04 18:00 | 53.36037 | -2.26727 | 250 ft | 1 kts | 231° |
| 2026-05-04 18:04 | 53.36028 | -2.26741 | 250 ft | 4 kts | 215° |
| 2026-05-04 18:04 | 53.35958 | -2.26718 | 249 ft | 0 kts | 159° |
| 2026-05-04 18:07 | 53.35954 | -2.26716 | 249 ft | 2 kts | 163° |
| 2026-05-04 18:07 | 53.35935 | -2.26712 | 249 ft | 3 kts | 172° |
| 2026-05-04 18:07 | 53.35930 | -2.26711 | 249 ft | 3 kts | 172° |
| 2026-05-04 18:08 | 53.35853 | -2.26689 | 250 ft | 17 kts | 170° |
| 2026-05-04 18:08 | 53.35729 | -2.26655 | 249 ft | 19 kts | 169° |
| 2026-05-04 18:08 | 53.35613 | -2.26624 | 246 ft | 15 kts | 181° |
| 2026-05-04 18:08 | 53.35527 | -2.26712 | 244 ft | 15 kts | 232° |
| 2026-05-04 18:09 | 53.35394 | -2.26990 | 241 ft | 17 kts | 231° |
| 2026-05-04 18:09 | 53.35196 | -2.27236 | 238 ft | 19 kts | 191° |
| 2026-05-04 18:10 | 53.35152 | -2.27250 | 238 ft | 0 kts | 190° |
| 2026-05-04 18:10 | 53.35134 | -2.27256 | 238 ft | 9 kts | 191° |
| 2026-05-04 18:10 | 53.35031 | -2.27297 | 236 ft | 20 kts | 207° |
| 2026-05-04 18:10 | 53.34886 | -2.27580 | 231 ft | 62 kts | 231° |
| 2026-05-04 18:11 | 53.34428 | -2.28523 | 223 ft | 144 kts | 231° |
| 2026-05-04 18:11 | 53.33677 | -2.30056 | 558 ft | 185 kts | 231° |
| 2026-05-04 18:11 | 53.32823 | -2.31771 | 1456 ft | 197 kts | 233° |
| 2026-05-04 18:11 | 53.32014 | -2.33581 | 2437 ft | 204 kts | 244° |
| 2026-05-04 18:12 | 53.31711 | -2.36041 | 2663 ft | 232 kts | 280° |
| 2026-05-04 18:12 | 53.32054 | -2.38791 | 3161 ft | 249 kts | 283° |
| 2026-05-04 18:12 | 53.32423 | -2.41647 | 3930 ft | 254 kts | 281° |
| 2026-05-04 18:12 | 53.32404 | -2.44622 | 4669 ft | 260 kts | 258° |
| 2026-05-04 18:13 | 53.31890 | -2.47559 | 4975 ft | 264 kts | 253° |
| 2026-05-04 18:13 | 53.31326 | -2.50476 | 4994 ft | 264 kts | 253° |